createdAt,value
2023-01-12T04:46:19.718Z,6.70
2023-01-12T04:48:46.409Z,6.60
2023-01-12T04:51:13.969Z,6.70
2023-01-12T04:53:40.771Z,6.90
2023-01-12T04:56:08.512Z,7.10
2023-01-12T04:58:35.732Z,7.20
2023-01-12T05:01:14.064Z,7.50
2023-01-12T05:03:41.128Z,7.60
2023-01-12T05:06:08.415Z,7.30
2023-01-12T05:08:54.297Z,7.40
2023-01-12T05:11:21.590Z,7.50
2023-01-12T05:13:48.407Z,7.40
2023-01-12T05:16:17.313Z,7.40
2023-01-12T05:18:45.480Z,7.40
2023-01-12T05:21:13.078Z,7.50
2023-01-12T05:23:39.764Z,7.60
2023-01-12T05:26:06.660Z,7.60
2023-01-12T05:28:33.792Z,7.50
2023-01-12T05:31:06.293Z,7.70
2023-01-12T05:33:33.605Z,7.60
2023-01-12T05:36:03.504Z,7.60
2023-01-12T05:38:30.317Z,7.60
2023-01-12T05:41:03.385Z,7.40
2023-01-12T05:43:49.068Z,7.20
2023-01-12T05:46:17.722Z,7.10
2023-01-12T05:48:44.483Z,7.40
2023-01-12T05:51:11.721Z,7.30
2023-01-12T05:53:38.667Z,7.30
2023-01-12T05:56:32.823Z,7.40
2023-01-12T05:59:01.377Z,7.40
2023-01-12T06:01:32.288Z,7.30
2023-01-12T06:04:01.451Z,7.40
2023-01-12T06:06:33.149Z,7.60
2023-01-12T06:09:00.807Z,7.70
2023-01-12T06:11:46.333Z,7.70
2023-01-12T06:14:12.973Z,7.80
2023-01-12T06:16:41.878Z,7.60
2023-01-12T06:19:12.348Z,7.50
2023-01-12T06:21:40.269Z,7.40
2023-01-12T06:24:07.129Z,7.50
2023-01-12T06:26:33.768Z,7.20
2023-01-12T06:29:00.396Z,7.40
2023-01-12T06:31:27.086Z,7.70
2023-01-12T06:33:53.774Z,7.40
2023-01-12T06:36:20.700Z,7.60
2023-01-12T06:38:47.351Z,7.20
2023-01-12T06:41:32.669Z,7.10
2023-01-12T06:44:00.124Z,7.30
2023-01-12T06:46:27.636Z,7.30
2023-01-12T06:48:58.560Z,7.30
2023-01-12T06:51:25.568Z,7.30
2023-01-12T06:53:52.330Z,7.00
2023-01-12T06:56:18.956Z,6.90
2023-01-12T06:58:45.715Z,7.00
2023-01-12T07:01:13.737Z,7.30
2023-01-12T07:03:40.694Z,7.20
2023-01-12T07:06:07.872Z,7.20
2023-01-12T07:08:34.968Z,7.20
2023-01-12T07:11:07.982Z,7.40
2023-01-12T07:13:35.041Z,7.50
2023-01-12T07:16:02.220Z,7.50
2023-01-12T07:18:29.788Z,7.60
2023-01-12T07:20:56.820Z,7.60
2023-01-12T07:23:23.739Z,7.70
2023-01-12T07:25:50.400Z,7.50
2023-01-12T07:28:17.020Z,7.50
2023-01-12T07:30:43.840Z,7.60
2023-01-12T07:33:12.567Z,7.30
2023-01-12T07:35:40.961Z,7.40
2023-01-12T07:38:07.669Z,7.50
2023-01-12T07:40:34.978Z,7.60
2023-01-12T07:43:03.779Z,7.90
2023-01-12T07:45:30.827Z,8.00
2023-01-12T07:47:58.023Z,7.80
2023-01-12T07:50:26.149Z,7.60
2023-01-12T07:52:52.888Z,7.70
2023-01-12T07:55:20.037Z,7.70
2023-01-12T07:57:57.009Z,7.70
2023-01-12T08:00:24.997Z,7.90
2023-01-12T08:02:53.513Z,7.90
2023-01-12T08:05:22.237Z,7.80
2023-01-12T08:07:49.261Z,7.80
2023-01-12T08:10:16.469Z,8.00
2023-01-12T08:12:43.377Z,7.80
2023-01-12T08:15:10.973Z,7.60
2023-01-12T08:17:45.029Z,7.40
2023-01-12T08:20:28.199Z,7.60
2023-01-12T08:22:59.070Z,7.80
2023-01-12T08:25:31.831Z,8.00
2023-01-12T08:28:03.453Z,8.20
2023-01-12T08:30:30.504Z,8.10
2023-01-12T08:32:59.873Z,8.20
2023-01-12T08:35:28.486Z,8.30
2023-01-12T08:37:56.100Z,8.40
2023-01-12T08:40:24.254Z,8.20
2023-01-12T08:42:50.924Z,8.00
2023-01-12T08:45:17.713Z,8.00
2023-01-12T08:47:45.207Z,8.20
2023-01-12T08:50:11.986Z,8.20
2023-01-12T08:52:38.592Z,8.30
2023-01-12T08:55:05.875Z,8.40
2023-01-12T08:57:32.641Z,8.50
2023-01-12T08:59:59.339Z,8.70
2023-01-12T09:02:27.093Z,8.50
2023-01-12T09:04:53.990Z,8.50
2023-01-12T09:07:20.891Z,8.50
2023-01-12T09:09:47.543Z,8.20
2023-01-12T09:12:14.207Z,8.20
2023-01-12T09:14:40.885Z,8.20
2023-01-12T09:17:07.728Z,8.20
2023-01-12T09:19:34.582Z,8.20
2023-01-12T09:22:01.218Z,8.40
2023-01-12T09:24:27.928Z,8.50
2023-01-12T09:26:54.599Z,8.40
2023-01-12T09:29:21.369Z,8.50
2023-01-12T09:31:48.064Z,8.80
2023-01-12T09:34:14.903Z,9.00
2023-01-12T09:36:42.031Z,9.00
2023-01-12T09:39:10.321Z,8.80
2023-01-12T09:42:02.837Z,8.70
2023-01-12T09:44:56.469Z,8.70
2023-01-12T09:47:48.613Z,8.70
2023-01-12T09:50:21.986Z,8.90
2023-01-12T09:53:12.672Z,8.90
2023-01-12T09:56:04.051Z,9.10
2023-01-12T09:58:49.479Z,9.30
2023-01-12T10:01:28.835Z,9.40
2023-01-12T10:03:58.662Z,9.50
2023-01-12T10:06:25.404Z,9.60
2023-01-12T10:08:58.274Z,9.70
2023-01-12T10:11:49.491Z,9.50
2023-01-12T10:14:28.035Z,9.20
2023-01-12T10:17:00.398Z,9.10
2023-01-12T10:19:38.982Z,9.00
2023-01-12T10:22:38.485Z,9.20
2023-01-12T10:25:14.343Z,9.10
2023-01-12T10:27:47.348Z,8.70
2023-01-12T10:30:18.677Z,9.00
2023-01-12T10:32:45.561Z,9.30
2023-01-12T10:35:17.485Z,9.30
2023-01-12T10:37:53.728Z,9.30
2023-01-12T10:40:30.170Z,9.20
2023-01-12T10:43:31.897Z,9.00
2023-01-12T10:46:18.285Z,8.90
2023-01-12T10:48:49.749Z,8.90
2023-01-12T10:51:22.164Z,9.20
2023-01-12T10:53:53.817Z,8.90
2023-01-12T10:56:23.554Z,8.70
2023-01-12T10:58:57.701Z,8.70
2023-01-12T11:01:24.717Z,8.60
2023-01-12T11:03:51.499Z,8.70
2023-01-12T11:06:28.535Z,8.70
2023-01-12T11:08:56.114Z,8.90
2023-01-12T11:11:40.761Z,9.20
2023-01-12T11:14:24.370Z,9.20
2023-01-12T11:16:51.072Z,9.30
2023-01-12T11:19:31.719Z,9.40
2023-01-12T11:22:12.818Z,9.30
2023-01-12T11:24:47.524Z,9.40
2023-01-12T11:27:24.692Z,9.60
2023-01-12T11:30:03.176Z,9.90
2023-01-12T11:32:39.690Z,9.60
2023-01-12T11:35:29.225Z,9.70
2023-01-12T11:38:00.935Z,9.80
2023-01-12T11:40:34.352Z,10.10
2023-01-12T11:43:30.957Z,10.00
2023-01-12T11:46:26.501Z,10.00
2023-01-12T11:49:08.006Z,10.10
2023-01-12T11:51:34.714Z,10.10
2023-01-12T11:54:01.514Z,10.20
2023-01-12T11:56:55.671Z,10.20
2023-01-12T12:00:06.905Z,10.30
2023-01-12T12:02:33.605Z,10.00
2023-01-12T12:05:25.335Z,9.90
2023-01-12T12:08:23.093Z,9.50
2023-01-12T12:11:08.440Z,9.30
2023-01-12T12:13:53.361Z,9.10
2023-01-12T12:16:50.184Z,9.20
2023-01-12T12:19:25.643Z,9.00
2023-01-12T12:22:01.404Z,9.00
2023-01-12T12:24:40.257Z,9.10
2023-01-12T12:27:37.058Z,9.20
2023-01-12T12:30:09.704Z,9.20
2023-01-12T12:32:53.151Z,9.20
2023-01-12T12:35:33.372Z,9.20
2023-01-12T12:38:08.916Z,9.20
2023-01-12T12:41:12.895Z,9.30
2023-01-12T12:43:58.373Z,9.30
2023-01-12T12:46:42.329Z,9.30
2023-01-12T12:49:16.630Z,9.60
2023-01-12T12:51:44.636Z,9.50
2023-01-12T12:54:17.174Z,9.60
2023-01-12T12:56:44.680Z,9.50
2023-01-12T12:59:31.310Z,9.60
2023-01-12T13:02:00.205Z,9.70
2023-01-12T13:05:00.157Z,9.80
2023-01-12T13:07:27.449Z,9.80
2023-01-12T13:10:10.343Z,9.90
2023-01-12T13:12:37.392Z,9.90
2023-01-12T13:15:36.604Z,9.80
2023-01-12T13:18:05.380Z,10.00
2023-01-12T13:20:51.960Z,10.00
2023-01-12T13:23:48.045Z,10.00
2023-01-12T13:26:33.206Z,10.10
2023-01-12T13:29:28.021Z,10.00
2023-01-12T13:32:34.834Z,9.90
2023-01-12T13:35:01.761Z,10.00
2023-01-12T13:37:42.480Z,10.10
2023-01-12T13:40:19.890Z,10.10
2023-01-12T13:43:07.920Z,10.20
2023-01-12T13:45:36.233Z,10.30
2023-01-12T13:48:06.302Z,10.20
2023-01-12T13:50:35.955Z,10.50
2023-01-12T13:53:04.409Z,10.40
2023-01-12T13:55:33.426Z,10.50
2023-01-12T13:58:06.919Z,10.60
2023-01-12T14:00:34.871Z,10.90
2023-01-12T14:03:03.942Z,10.90
2023-01-12T14:05:51.826Z,10.90
2023-01-12T14:08:52.225Z,10.80
2023-01-12T14:11:19.116Z,10.70
2023-01-12T14:13:51.835Z,10.50
2023-01-12T14:16:37.231Z,10.50
2023-01-12T14:19:28.345Z,10.60
2023-01-12T14:21:57.878Z,10.80
2023-01-12T14:24:25.275Z,10.50
2023-01-12T14:26:52.116Z,10.40
2023-01-12T14:29:18.835Z,10.20
2023-01-12T14:31:48.527Z,10.10
2023-01-12T14:34:26.926Z,10.10
2023-01-12T14:36:53.744Z,10.10
2023-01-12T14:39:26.436Z,10.30
2023-01-12T14:42:13.955Z,10.50
2023-01-12T14:45:12.091Z,10.40
2023-01-12T14:47:39.690Z,10.40
2023-01-12T14:50:22.669Z,10.70
2023-01-12T14:52:49.491Z,10.60
2023-01-12T14:55:22.182Z,10.80
2023-01-12T14:57:53.424Z,10.60
2023-01-12T15:00:26.626Z,10.50
2023-01-12T15:02:55.758Z,10.40
2023-01-12T15:05:26.231Z,10.70
2023-01-12T15:08:26.775Z,10.90
2023-01-12T15:11:28.794Z,10.50
2023-01-12T15:13:58.117Z,10.70
2023-01-12T15:16:43.323Z,10.70
2023-01-12T15:19:29.074Z,10.60
2023-01-12T15:22:15.048Z,10.50
2023-01-12T15:25:00.486Z,10.60
2023-01-12T15:27:27.387Z,10.70
2023-01-12T15:29:55.179Z,10.60
2023-01-12T15:32:49.600Z,10.60
2023-01-12T15:35:23.605Z,10.20
2023-01-12T15:37:53.208Z,10.20
2023-01-12T15:40:20.441Z,10.40
2023-01-12T15:42:47.790Z,10.60
2023-01-12T15:45:33.174Z,10.80
2023-01-12T15:48:00.552Z,10.80
2023-01-12T15:50:29.202Z,10.90
2023-01-12T15:52:58.229Z,11.00
2023-01-12T15:55:25.161Z,11.00
2023-01-12T15:57:52.242Z,10.90
2023-01-12T16:00:21.728Z,10.90
2023-01-12T16:02:49.950Z,10.60
2023-01-12T16:05:20.468Z,10.50
2023-01-12T16:07:48.877Z,10.40
2023-01-12T16:10:16.728Z,10.60
2023-01-12T16:12:44.283Z,10.40
2023-01-12T16:15:21.272Z,10.20
2023-01-12T16:17:48.865Z,10.50
2023-01-12T16:20:17.537Z,10.20
2023-01-12T16:22:45.374Z,10.30
2023-01-12T16:25:12.765Z,10.20
2023-01-12T16:27:39.915Z,10.10
2023-01-12T16:30:12.786Z,10.40
2023-01-12T16:32:40.837Z,10.70
2023-01-12T16:35:07.639Z,10.70
2023-01-12T16:37:35.264Z,10.80
2023-01-12T16:40:02.026Z,10.70
2023-01-12T16:42:28.809Z,10.80
2023-01-12T16:44:55.446Z,11.00
2023-01-12T16:47:22.399Z,11.10
2023-01-12T16:49:51.036Z,11.10
2023-01-12T16:52:19.796Z,10.80
2023-01-12T16:54:46.523Z,10.80
2023-01-12T16:57:15.497Z,10.90
2023-01-12T16:59:42.529Z,11.00
2023-01-12T17:02:17.061Z,10.90
2023-01-12T17:04:44.864Z,11.00
2023-01-12T17:07:12.536Z,10.90
2023-01-12T17:09:40.374Z,10.90
2023-01-12T17:12:07.787Z,10.70
2023-01-12T17:14:35.175Z,10.70
2023-01-12T17:17:08.274Z,10.80
2023-01-12T17:19:37.251Z,10.90
2023-01-12T17:22:06.616Z,10.80
2023-01-12T17:24:35.328Z,10.80
2023-01-12T17:27:02.485Z,10.80
2023-01-12T17:29:29.342Z,10.60
2023-01-12T17:32:05.146Z,10.20
2023-01-12T17:34:38.908Z,10.00
2023-01-12T17:37:08.441Z,9.90
2023-01-12T17:39:46.022Z,9.80
2023-01-12T17:42:33.033Z,9.80
2023-01-12T17:44:59.998Z,9.60
2023-01-12T17:47:26.814Z,9.60
2023-01-12T17:49:54.267Z,9.70
2023-01-12T17:52:21.033Z,9.70
2023-01-12T17:54:47.765Z,9.60
2023-01-12T17:57:14.700Z,9.60
2023-01-12T17:59:41.399Z,9.70
2023-01-12T18:02:10.305Z,9.60
2023-01-12T18:04:36.930Z,9.60
2023-01-12T18:07:03.782Z,9.60
2023-01-12T18:09:31.355Z,9.60
2023-01-12T18:12:00.158Z,9.60
2023-01-12T18:14:26.974Z,9.60
2023-01-12T18:16:53.621Z,9.70
2023-01-12T18:19:20.268Z,9.70
2023-01-12T18:21:48.807Z,9.70
2023-01-12T18:24:15.433Z,9.70
2023-01-12T18:26:42.086Z,9.70
2023-01-12T18:29:08.736Z,9.90
2023-01-12T18:31:37.431Z,9.80
2023-01-12T18:34:06.127Z,9.70
2023-01-12T18:36:35.112Z,9.80
2023-01-12T18:39:03.301Z,9.70
2023-01-12T18:41:48.607Z,9.70
2023-01-12T18:44:15.384Z,9.60
2023-01-12T18:47:02.534Z,9.70
2023-01-12T18:49:32.000Z,9.60
2023-01-12T18:52:17.944Z,9.70
2023-01-12T18:54:47.458Z,9.60
2023-01-12T18:57:19.330Z,9.50
2023-01-12T18:59:51.905Z,9.60
2023-01-12T19:02:20.037Z,9.60
2023-01-12T19:04:50.195Z,9.60
2023-01-12T19:07:50.838Z,9.60
2023-01-12T19:10:17.993Z,9.60
2023-01-12T19:12:45.835Z,9.60
2023-01-12T19:15:32.041Z,9.70
2023-01-12T19:17:58.942Z,9.70
2023-01-12T19:20:30.095Z,9.70
2023-01-12T19:23:16.493Z,9.70
2023-01-12T19:26:01.851Z,9.60
2023-01-12T19:28:38.205Z,9.80
2023-01-12T19:31:09.836Z,9.70
2023-01-12T19:33:37.070Z,9.70
2023-01-12T19:36:13.922Z,9.60
2023-01-12T19:38:43.300Z,9.70
2023-01-12T19:41:12.559Z,9.60
2023-01-12T19:43:45.043Z,9.60
2023-01-12T19:46:13.120Z,9.60
2023-01-12T19:48:40.003Z,9.70
2023-01-12T19:51:10.432Z,9.90
2023-01-12T19:53:38.976Z,9.80
2023-01-12T19:56:10.414Z,10.00
2023-01-12T19:58:37.239Z,9.80
2023-01-12T20:01:04.213Z,9.90
2023-01-12T20:03:30.917Z,9.80
2023-01-12T20:05:57.613Z,9.80
2023-01-12T20:08:25.166Z,9.80
2023-01-12T20:10:57.525Z,9.90
2023-01-12T20:13:24.915Z,9.90
2023-01-12T20:15:52.337Z,10.10
2023-01-12T20:18:19.059Z,9.90
2023-01-12T20:20:46.479Z,9.80
2023-01-12T20:23:14.871Z,10.00
2023-01-12T20:25:43.067Z,9.90
2023-01-12T20:28:12.051Z,9.80
2023-01-12T20:30:41.646Z,9.50
2023-01-12T20:33:08.992Z,9.50
2023-01-12T20:35:38.176Z,9.60
2023-01-12T20:38:06.662Z,9.40
2023-01-12T20:40:33.674Z,9.20
2023-01-12T20:43:00.632Z,9.10
2023-01-12T20:45:27.398Z,8.90
2023-01-12T20:47:55.752Z,8.80
2023-01-12T20:50:25.312Z,8.80
2023-01-12T20:52:52.827Z,8.70
2023-01-12T20:55:20.995Z,8.80
2023-01-12T20:57:47.811Z,8.90
2023-01-12T21:00:14.620Z,8.90
2023-01-12T21:02:41.228Z,9.10
2023-01-12T21:05:08.980Z,9.10
2023-01-12T21:07:37.213Z,8.90
2023-01-12T21:10:04.263Z,8.90
2023-01-12T21:12:30.890Z,8.80
2023-01-12T21:14:57.557Z,8.60
2023-01-12T21:17:24.338Z,8.40
2023-01-12T21:19:51.031Z,8.40
2023-01-12T21:22:17.696Z,8.40
2023-01-12T21:24:44.301Z,8.30
2023-01-12T21:27:11.051Z,8.30
2023-01-12T21:29:37.731Z,8.10
2023-01-12T21:32:04.614Z,8.10
2023-01-12T21:34:31.233Z,8.10
2023-01-12T21:36:58.242Z,8.10
2023-01-12T21:39:24.880Z,8.00
2023-01-12T21:42:10.112Z,8.00
2023-01-12T21:44:36.719Z,8.10
2023-01-12T21:47:03.400Z,8.20
2023-01-12T21:49:30.061Z,8.10
2023-01-12T21:51:56.686Z,8.10
2023-01-12T21:54:23.326Z,7.90
2023-01-12T21:56:49.951Z,7.90
2023-01-12T21:59:16.614Z,7.90
2023-01-12T22:01:43.314Z,8.00
2023-01-12T22:04:17.211Z,8.00
2023-01-12T22:06:43.848Z,8.10
2023-01-12T22:09:10.457Z,8.10
2023-01-12T22:11:37.055Z,8.30
2023-01-12T22:14:03.703Z,8.50
2023-01-12T22:16:30.364Z,8.70
2023-01-12T22:18:57.007Z,8.80
2023-01-12T22:21:23.774Z,8.90
2023-01-12T22:23:50.530Z,9.00
2023-01-12T22:26:18.443Z,9.00
2023-01-12T22:28:49.873Z,8.90
2023-01-12T22:31:19.461Z,8.70
2023-01-12T22:33:48.075Z,8.30
2023-01-12T22:36:14.804Z,8.30
2023-01-12T22:38:42.151Z,8.20
2023-01-12T22:41:11.612Z,8.00
2023-01-12T22:43:41.846Z,8.00
2023-01-12T22:46:19.477Z,8.10
2023-01-12T22:48:50.737Z,7.80
2023-01-12T22:51:20.683Z,7.80
2023-01-12T22:53:48.066Z,7.90
2023-01-12T22:56:15.088Z,7.90
2023-01-12T22:58:49.931Z,8.00
2023-01-12T23:01:18.286Z,8.10
2023-01-12T23:03:45.408Z,8.00
2023-01-12T23:06:14.551Z,7.90
2023-01-12T23:08:43.501Z,7.90
2023-01-12T23:11:19.184Z,7.90
2023-01-12T23:13:46.651Z,7.80
2023-01-12T23:16:15.512Z,7.70
2023-01-12T23:18:44.030Z,7.80
2023-01-12T23:21:15.372Z,7.80
2023-01-12T23:23:50.261Z,7.70
2023-01-12T23:26:20.356Z,7.80
2023-01-12T23:28:49.984Z,7.90
2023-01-12T23:31:21.102Z,8.00
2023-01-12T23:33:48.342Z,8.00
2023-01-12T23:36:17.860Z,7.80
2023-01-12T23:38:45.079Z,7.60
2023-01-12T23:41:18.229Z,7.60
2023-01-12T23:43:46.772Z,7.60
2023-01-12T23:46:16.753Z,7.70
2023-01-12T23:48:43.853Z,7.70
2023-01-12T23:51:10.679Z,7.70
2023-01-12T23:53:37.323Z,7.80
2023-01-12T23:56:06.352Z,7.70
2023-01-12T23:58:33.430Z,7.80
